VAM | Vabird-VBD

Virtual Vabird! Aerolínea Virtual de habla hispana, desde 2011




 INFORMACIÓN METAR y TAF
METAR FOR PADQ
ADDS - METARS form results

(2314 UTC 09 May 2021)
Data provider http://aviationweather.gov/metar/data/
 
METAR text: PADQ 092253Z 08011KT 1/4SM FG OVC002 06/04 A3007 RMK AO2 SLP183 T00610044
Conditions at: PADQ (KODIAK , AK, US) observed 2253 UTC 09 May 2021
Temperature: 6.1°C (43°F)
Dewpoint: 4.4°C (40°F) [RH = 89%]
Pressure (altimeter): 30.07 inches Hg (1018.4 mb)
[Sea-level pressure: 1018.3 mb]
Winds: from the E (80 degrees) at 13 MPH (11 knots; 5.7 m/s)
Visibility: 0.25 miles (0.40 km)
Ceiling: 200 feet AGL
Clouds: overcast cloud deck at 200 feet AGL
Weather: FG  (fog)

METAR text: PADQ 092243Z 09011KT 1/4SM FG OVC003 06/04 A3007 RMK AO2 T00610044
Conditions at: PADQ (KODIAK , AK, US) observed 2243 UTC 09 May 2021
Temperature: 6.1°C (43°F)
Dewpoint: 4.4°C (40°F) [RH = 89%]
Pressure (altimeter): 30.07 inches Hg (1018.4 mb)
Winds: from the E (90 degrees) at 13 MPH (11 knots; 5.7 m/s)
Visibility: 0.25 miles (0.40 km)
Ceiling: 300 feet AGL
Clouds: overcast cloud deck at 300 feet AGL
Weather: FG  (fog)

Forecast for: PADQ (KODIAK , AK, US)
Text: PADQ 092132Z 0922/1018 08011KT 4SM -RA BR SCT005 OVC015
Forecast period: 2200 UTC 09 May 2021 to 0200 UTC 10 May 2021
Forecast type: FROM: standard forecast or significant change
Winds: from the E (80 degrees) at 13 MPH (11 knots; 5.7 m/s)
Visibility: 4 miles (6 km)
Ceiling: 1500 feet AGL
Clouds: scattered clouds at 500 feet AGL
overcast cloud deck at 1500 feet AGL
Weather: -RA BR  (light rain, mist)
Text: TEMPO 0922/1002 1 1/2SM BR BKN005
Forecast period: 2200 UTC 09 May 2021 to 0200 UTC 10 May 2021
Forecast type: TEMPORARY: The following changes expected for less than half the time period
Visibility: 1.50 miles (2.41 km)
Ceiling: 500 feet AGL
Clouds: broken clouds at 500 feet AGL
Weather: BR  (mist)
Text: FM100200 09015KT 2SM -RA BR SCT003 OVC007
Forecast period: 0200 to 1400 UTC 10 May 2021
Forecast type: FROM: standard forecast or significant change
Winds: from the E (90 degrees) at 17 MPH (15 knots; 7.7 m/s)
Visibility: 2.00 miles (3.22 km)
Ceiling: 700 feet AGL
Clouds: scattered clouds at 300 feet AGL
overcast cloud deck at 700 feet AGL
Weather: -RA BR  (light rain, mist)
Text: FM101400 07008KT 4SM -RA BR SCT007 OVC015
Forecast period: 1400 to 1800 UTC 10 May 2021
Forecast type: FROM: standard forecast or significant change
Winds: from the ENE (70 degrees) at 9 MPH (8 knots; 4.1 m/s)
Visibility: 4 miles (6 km)
Ceiling: 1500 feet AGL
Clouds: scattered clouds at 700 feet AGL
overcast cloud deck at 1500 feet AGL
Weather: -RA BR  (light rain, mist)

 MAPA DE AEROPUERTO

 INFORMACIÓN DE PISTA